Time;durP1;ratioP1;P1;durP2;ratioP2;P2;SDS_P1;SDS_P2;PMS_P1;PMS_P2;Temp;Humidity;BMP_temperature;BMP_pressure;BME280_temperature;BME280_humidity;BME280_pressure;Samples;Min_cycle;Max_cycle;Signal;HPM_P1;HPM_P2
2022/02/03 00:00:23;;;;;;;1.50;0.68;;;;;;;;;;5031421;28;20093;-74
2022/02/03 00:03:01;;;;;;;1.65;0.60;;;;;;;;;;5048296;28;20017;-75
2022/02/03 00:05:39;;;;;;;1.25;0.73;;;;;;;;;;5051239;28;20036;-74
2022/02/03 00:25:12;;;;;;;0.50;0.50;;;;;;;;;;4979314;28;20039;-74
2022/02/03 00:30:13;;;;;;;0.57;0.50;;;;;;;;;;5050177;28;20025;-74
2022/02/03 00:48:56;;;;;;;0.90;0.55;;;;;;;;;;5042803;28;20052;-74
2022/02/03 00:51:24;;;;;;;0.98;0.65;;;;;;;;;;5043824;28;20020;-74
2022/02/03 00:53:50;;;;;;;0.52;0.40;;;;;;;;;;5045636;28;20513;-74
2022/02/03 00:56:17;;;;;;;0.98;0.70;;;;;;;;;;5050861;28;20476;-74
2022/02/03 00:58:49;;;;;;;0.65;0.52;;;;;;;;;;5042472;28;20025;-74
2022/02/03 01:01:17;;;;;;;0.55;0.50;;;;;;;;;;5041873;28;20051;-74
2022/02/03 01:03:44;;;;;;;0.95;0.55;;;;;;;;;;5050543;28;20066;-74
2022/02/03 01:06:13;;;;;;;0.60;0.40;;;;;;;;;;5049482;28;20017;-74
2022/02/03 01:08:48;;;;;;;0.68;0.55;;;;;;;;;;5050771;28;20041;-74
2022/02/03 01:11:20;;;;;;;0.73;0.45;;;;;;;;;;5019957;28;20078;-74
2022/02/03 01:13:53;;;;;;;0.77;0.60;;;;;;;;;;5038783;28;20564;-74
2022/02/03 01:43:18;;;;;;;1.05;0.50;;;;;;;;;;5046380;28;20021;-74
2022/02/03 01:43:32;;;;;;;0.75;0.50;;;;;;;;;;5035177;28;20090;-74
2022/02/03 01:46:09;;;;;;;0.73;0.68;;;;;;;;;;5049100;28;20021;-75
2022/02/03 01:51:44;;;;;;;0.80;0.45;;;;;;;;;;4992475;28;20024;-74
2022/02/03 01:54:10;;;;;;;2.10;0.45;;;;;;;;;;5045500;28;20064;-74
2022/02/03 01:56:41;;;;;;;0.65;0.40;;;;;;;;;;5042714;28;20123;-74
2022/02/03 01:59:18;;;;;;;0.73;0.57;;;;;;;;;;5046121;28;20021;-74
2022/02/03 02:01:45;;;;;;;0.73;0.52;;;;;;;;;;5038289;28;20395;-74
2022/02/03 02:04:30;;;;;;;1.00;0.60;;;;;;;;;;5041408;28;20511;-74
2022/02/03 02:07:08;;;;;;;0.70;0.60;;;;;;;;;;5022838;28;20036;-74
2022/02/03 02:09:58;;;;;;;1.00;0.50;;;;;;;;;;5049719;28;20055;-74
2022/02/03 02:12:48;;;;;;;0.47;0.47;;;;;;;;;;5023348;28;20017;-74
2022/02/03 02:15:47;;;;;;;0.98;0.60;;;;;;;;;;5049405;28;20029;-74
2022/02/03 02:37:57;;;;;;;0.88;0.60;;;;;;;;;;5041309;28;20356;-74
2022/02/03 02:43:06;;;;;;;0.63;0.50;;;;;;;;;;5040180;28;20476;-74
2022/02/03 02:45:41;;;;;;;0.80;0.50;;;;;;;;;;5041526;28;20052;-74
2022/02/03 02:48:17;;;;;;;0.88;0.57;;;;;;;;;;5040559;28;20395;-74
2022/02/03 02:51:11;;;;;;;0.40;0.35;;;;;;;;;;5023338;28;20128;-74
2022/02/03 03:34:35;;;;;;;1.67;0.57;;;;;;;;;;5051911;28;20025;-74
2022/02/03 03:37:05;;;;;;;0.63;0.50;;;;;;;;;;5033544;28;20029;-74
2022/02/03 03:39:39;;;;;;;1.20;0.70;;;;;;;;;;5052128;28;20025;-74
2022/02/03 03:42:06;;;;;;;0.93;0.70;;;;;;;;;;5033492;28;20072;-74
2022/02/03 03:44:34;;;;;;;0.85;0.70;;;;;;;;;;5040474;28;20021;-75
2022/02/03 03:47:05;;;;;;;0.82;0.55;;;;;;;;;;5041745;28;20061;-74
2022/02/03 03:49:44;;;;;;;0.90;0.45;;;;;;;;;;5051893;28;20017;-73
2022/02/03 03:52:23;;;;;;;1.30;0.70;;;;;;;;;;5034042;28;20718;-74
2022/02/03 03:55:01;;;;;;;0.55;0.45;;;;;;;;;;5040165;28;20049;-74
2022/02/03 04:45:52;;;;;;;0.80;0.60;;;;;;;;;;5030678;28;20029;-75
2022/02/03 05:02:30;;;;;;;1.67;0.80;;;;;;;;;;5048668;28;20495;-74
2022/02/03 05:10:24;;;;;;;0.85;0.63;;;;;;;;;;5040124;28;20037;-74
2022/02/03 05:13:11;;;;;;;1.83;0.90;;;;;;;;;;5030702;28;20471;-74
2022/02/03 05:16:07;;;;;;;3.08;1.00;;;;;;;;;;5024845;28;20041;-74
2022/02/03 05:33:38;;;;;;;2.10;0.98;;;;;;;;;;5048020;28;20028;-74
2022/02/03 06:13:06;;;;;;;1.20;0.88;;;;;;;;;;5040952;28;20111;-73
2022/02/03 06:23:47;;;;;;;1.85;1.10;;;;;;;;;;5037978;28;20476;-74
2022/02/03 06:29:02;;;;;;;1.77;0.98;;;;;;;;;;5039982;28;20040;-73
2022/02/03 06:31:28;;;;;;;2.30;0.73;;;;;;;;;;5043442;28;20164;-73
2022/02/03 06:33:55;;;;;;;2.13;1.00;;;;;;;;;;5027738;28;20111;-73
2022/02/03 06:36:21;;;;;;;2.22;1.10;;;;;;;;;;5029561;28;20026;-73
2022/02/03 06:38:47;;;;;;;1.90;1.20;;;;;;;;;;5019455;28;20404;-73
2022/02/03 06:41:13;;;;;;;1.70;0.80;;;;;;;;;;5032326;28;20029;-73
2022/02/03 06:43:39;;;;;;;1.88;1.10;;;;;;;;;;5041190;28;20032;-73
2022/02/03 06:46:09;;;;;;;1.25;1.10;;;;;;;;;;5048255;28;20048;-73
2022/02/03 06:48:37;;;;;;;1.67;1.10;;;;;;;;;;5041534;28;20044;-74
2022/02/03 06:51:07;;;;;;;2.75;1.55;;;;;;;;;;5030387;28;20052;-74
2022/02/03 06:53:37;;;;;;;2.35;1.25;;;;;;;;;;5045892;28;20079;-74
2022/02/03 06:56:15;;;;;;;1.77;1.15;;;;;;;;;;5048704;28;20219;-74
2022/02/03 06:58:48;;;;;;;2.33;1.48;;;;;;;;;;5023696;28;20068;-74
2022/02/03 07:03:47;;;;;;;3.08;1.17;;;;;;;;;;5046161;28;20452;-73
2022/02/03 07:06:13;;;;;;;3.00;0.85;;;;;;;;;;5034529;28;20025;-74
2022/02/03 07:08:42;;;;;;;1.40;1.00;;;;;;;;;;5034890;28;20047;-74
2022/02/03 07:11:08;;;;;;;2.70;1.30;;;;;;;;;;5032223;28;20519;-74
2022/02/03 07:13:35;;;;;;;1.20;0.80;;;;;;;;;;5041104;28;20060;-74
2022/02/03 07:16:01;;;;;;;4.68;0.98;;;;;;;;;;5042050;28;20534;-74
2022/02/03 07:18:28;;;;;;;3.40;1.10;;;;;;;;;;5038954;28;20380;-74
2022/02/03 07:20:54;;;;;;;2.42;1.02;;;;;;;;;;5049416;28;20036;-74
2022/02/03 07:23:20;;;;;;;2.38;0.85;;;;;;;;;;5034499;28;20028;-74
2022/02/03 07:25:46;;;;;;;1.92;0.98;;;;;;;;;;5017170;28;20372;-74
2022/02/03 07:28:13;;;;;;;1.83;1.15;;;;;;;;;;5036372;28;20098;-74
2022/02/03 07:30:39;;;;;;;1.52;1.05;;;;;;;;;;5034380;28;20033;-74
2022/02/03 07:33:07;;;;;;;2.75;1.30;;;;;;;;;;5034844;28;20104;-74
2022/02/03 07:35:34;;;;;;;1.83;1.00;;;;;;;;;;5034303;28;20035;-74
2022/02/03 07:38:04;;;;;;;1.92;0.98;;;;;;;;;;5049209;28;20025;-74
2022/02/03 07:40:30;;;;;;;3.38;1.00;;;;;;;;;;5032149;28;20035;-74
2022/02/03 07:42:56;;;;;;;2.72;1.10;;;;;;;;;;5028298;28;20021;-74
2022/02/03 07:45:23;;;;;;;5.10;1.35;;;;;;;;;;5045598;28;20078;-74
2022/02/03 07:47:50;;;;;;;1.92;1.27;;;;;;;;;;5042417;28;20095;-74
2022/02/03 07:50:17;;;;;;;6.78;1.80;;;;;;;;;;5036472;28;20020;-74
2022/02/03 07:52:43;;;;;;;3.47;1.30;;;;;;;;;;5021662;28;20506;-74
2022/02/03 07:55:10;;;;;;;2.50;1.30;;;;;;;;;;5046888;28;20108;-74
2022/02/03 07:57:36;;;;;;;3.00;1.27;;;;;;;;;;5038872;28;20044;-74
2022/02/03 08:00:04;;;;;;;4.13;1.50;;;;;;;;;;5050553;28;20021;-74
2022/02/03 08:02:31;;;;;;;2.42;1.17;;;;;;;;;;5051559;28;20384;-74
2022/02/03 08:04:57;;;;;;;2.53;1.23;;;;;;;;;;5048600;28;20025;-75
2022/02/03 08:07:25;;;;;;;3.03;1.20;;;;;;;;;;5043300;28;20043;-72
2022/02/03 08:12:20;;;;;;;2.80;1.65;;;;;;;;;;5047084;28;20029;-74
2022/02/03 08:14:49;;;;;;;4.32;1.55;;;;;;;;;;5031951;28;20043;-75
2022/02/03 08:17:21;;;;;;;3.35;1.35;;;;;;;;;;5042742;28;20055;-75
2022/02/03 08:22:21;;;;;;;2.92;1.30;;;;;;;;;;5034654;28;20044;-74
2022/02/03 08:24:52;;;;;;;9.27;1.55;;;;;;;;;;5017965;28;20025;-75
2022/02/03 08:30:23;;;;;;;5.03;1.33;;;;;;;;;;5024789;28;20025;-75
2022/02/03 08:32:54;;;;;;;4.90;1.25;;;;;;;;;;5041452;28;20017;-73
2022/02/03 08:35:32;;;;;;;2.65;1.30;;;;;;;;;;5033901;28;20033;-76
2022/02/03 08:38:06;;;;;;;3.25;1.40;;;;;;;;;;5016847;28;20021;-75
2022/02/03 08:40:44;;;;;;;4.00;1.27;;;;;;;;;;5031508;28;20056;-75
2022/02/03 08:43:14;;;;;;;3.97;1.25;;;;;;;;;;5023738;28;20032;-74
2022/02/03 08:45:41;;;;;;;5.85;1.35;;;;;;;;;;5034534;28;20056;-74
2022/02/03 08:48:07;;;;;;;4.60;1.10;;;;;;;;;;5042514;28;20035;-74
2022/02/03 08:50:35;;;;;;;4.78;1.30;;;;;;;;;;5040830;28;20075;-75
2022/02/03 09:52:36;;;;;;;4.80;1.42;;;;;;;;;;5031196;28;20064;-74
2022/02/03 09:55:22;;;;;;;15.93;1.52;;;;;;;;;;5038583;28;20133;-73
2022/02/03 09:57:59;;;;;;;6.57;1.38;;;;;;;;;;5016811;28;20111;-73
2022/02/03 10:00:45;;;;;;;3.35;1.50;;;;;;;;;;5012041;28;20489;-73
2022/02/03 10:03:18;;;;;;;4.25;1.50;;;;;;;;;;5016356;28;20041;-74
2022/02/03 10:06:12;;;;;;;3.38;1.23;;;;;;;;;;5009009;28;20079;-75
2022/02/03 10:08:49;;;;;;;3.40;1.23;;;;;;;;;;5024908;28;20460;-74
2022/02/03 10:11:15;;;;;;;3.10;1.58;;;;;;;;;;5036107;28;20013;-73
2022/02/03 10:13:42;;;;;;;4.07;1.58;;;;;;;;;;5015116;28;20480;-74
2022/02/03 10:16:09;;;;;;;2.00;1.20;;;;;;;;;;5015574;28;20814;-73
2022/02/03 10:18:36;;;;;;;3.70;1.38;;;;;;;;;;5004631;28;20026;-73
2022/02/03 10:21:02;;;;;;;6.70;1.60;;;;;;;;;;5024570;28;20084;-73
2022/02/03 10:23:30;;;;;;;3.30;1.35;;;;;;;;;;5022967;28;20366;-74
2022/02/03 10:26:07;;;;;;;3.85;1.30;;;;;;;;;;5016483;28;20044;-73
2022/02/03 10:28:36;;;;;;;6.45;1.75;;;;;;;;;;4994748;28;20044;-73
2022/02/03 10:31:10;;;;;;;5.18;1.70;;;;;;;;;;5021007;28;20033;-73
2022/02/03 10:33:40;;;;;;;3.40;1.25;;;;;;;;;;5014867;28;20041;-73
2022/02/03 10:36:20;;;;;;;2.35;1.60;;;;;;;;;;5009656;28;20076;-73
2022/02/03 10:39:11;;;;;;;5.28;1.83;;;;;;;;;;5006478;28;20033;-73
2022/02/03 11:06:12;;;;;;;4.85;1.65;;;;;;;;;;5026880;28;20033;-73
2022/02/03 11:08:48;;;;;;;3.75;1.35;;;;;;;;;;5023923;28;20495;-75
2022/02/03 11:11:19;;;;;;;5.60;1.60;;;;;;;;;;5018605;28;20496;-75
2022/02/03 11:13:45;;;;;;;6.90;1.77;;;;;;;;;;5024872;28;20163;-75
2022/02/03 11:16:12;;;;;;;7.20;1.90;;;;;;;;;;5025286;28;20518;-73
2022/02/03 11:18:39;;;;;;;3.40;1.83;;;;;;;;;;5026325;28;20053;-74
2022/02/03 11:44:30;;;;;;;11.95;3.08;;;;;;;;;;5066692;28;20630;-76
2022/02/03 11:48:13;;;;;;;15.20;3.17;;;;;;;;;;5060838;28;20391;-77
2022/02/03 12:17:50;;;;;;;8.95;1.85;;;;;;;;;;5080120;28;20085;-76
2022/02/03 12:20:33;;;;;;;10.63;1.55;;;;;;;;;;5078141;28;20028;-76
2022/02/03 12:25:54;;;;;;;7.55;1.85;;;;;;;;;;5079885;28;20024;-77
2022/02/03 12:28:32;;;;;;;5.90;1.60;;;;;;;;;;5079345;28;20028;-76
2022/02/03 12:39:21;;;;;;;6.93;1.77;;;;;;;;;;5048527;28;20075;-76
2022/02/03 12:44:31;;;;;;;6.93;1.42;;;;;;;;;;5064715;28;20021;-76
2022/02/03 12:47:04;;;;;;;8.93;2.13;;;;;;;;;;5064925;28;20016;-77
2022/02/03 12:49:30;;;;;;;;;;;;;;;;;;5066433;28;20024;-77
2022/02/03 12:51:57;;;;;;;6.90;1.27;;;;;;;;;;5066952;28;19953;-77
2022/02/03 12:54:23;;;;;;;4.18;1.40;;;;;;;;;;5066118;28;20028;-78
2022/02/03 12:56:49;;;;;;;3.95;1.90;;;;;;;;;;5052033;28;20025;-77
2022/02/03 12:59:17;;;;;;;2.83;1.80;;;;;;;;;;5057869;28;20029;-76
2022/02/03 13:01:45;;;;;;;6.72;1.45;;;;;;;;;;5063675;28;20035;-76
2022/02/03 13:04:18;;;;;;;4.25;1.60;;;;;;;;;;5061856;28;20495;-76
2022/02/03 13:07:02;;;;;;;4.40;1.25;;;;;;;;;;5064862;28;20020;-76
2022/02/03 13:09:37;;;;;;;6.20;1.40;;;;;;;;;;5067204;28;20016;-76
2022/02/03 13:12:18;;;;;;;3.72;1.27;;;;;;;;;;5046881;28;20442;-76
2022/02/03 13:14:53;;;;;;;3.85;1.25;;;;;;;;;;5047361;28;20025;-75
2022/02/03 13:17:35;;;;;;;5.85;1.92;;;;;;;;;;5046511;28;20028;-76
2022/02/03 13:20:11;;;;;;;9.15;3.95;;;;;;;;;;5057586;28;20020;-74
2022/02/03 13:25:14;;;;;;;11.10;5.50;;;;;;;;;;5049317;28;20028;-77
2022/02/03 13:30:12;;;;;;;7.50;2.75;;;;;;;;;;5066613;28;20542;-75
2022/02/03 13:32:49;;;;;;;4.90;2.15;;;;;;;;;;5064476;28;20016;-76
2022/02/03 13:36:03;;;;;;;5.20;1.92;;;;;;;;;;5065928;28;20570;-76
2022/02/03 13:38:12;;;;;;;4.35;1.83;;;;;;;;;;5059231;28;20694;-76
2022/02/03 13:40:46;;;;;;;4.57;1.90;;;;;;;;;;5067316;28;20823;-76
2022/02/03 13:43:14;;;;;;;6.07;2.08;;;;;;;;;;5066866;28;20044;-75
2022/02/03 13:45:43;;;;;;;11.43;3.28;;;;;;;;;;5064479;28;20104;-75
2022/02/03 13:48:16;;;;;;;4.50;2.35;;;;;;;;;;5065715;28;20403;-76
2022/02/03 13:50:51;;;;;;;5.50;2.28;;;;;;;;;;5067308;28;20024;-74
2022/02/03 13:53:22;;;;;;;8.32;2.10;;;;;;;;;;5064400;28;20028;-73
2022/02/03 14:21:07;;;;;;;4.50;1.92;;;;;;;;;;5057333;28;20125;-75
2022/02/03 14:29:13;;;;;;;3.35;1.60;;;;;;;;;;5053444;28;20628;-75
2022/02/03 14:31:43;;;;;;;11.38;2.83;;;;;;;;;;5064491;28;20024;-75
2022/02/03 14:34:15;;;;;;;6.32;2.53;;;;;;;;;;5062967;28;20478;-74
2022/02/03 14:36:45;;;;;;;4.85;2.10;;;;;;;;;;5056589;28;20495;-74
2022/02/03 14:39:20;;;;;;;7.68;2.47;;;;;;;;;;5045177;28;20040;-74
2022/02/03 14:41:48;;;;;;;4.72;2.13;;;;;;;;;;5051093;28;20075;-75
2022/02/03 14:44:16;;;;;;;4.93;2.38;;;;;;;;;;5064608;28;20020;-73
2022/02/03 14:46:43;;;;;;;3.10;1.90;;;;;;;;;;5066732;28;20111;-75
2022/02/03 14:49:10;;;;;;;4.00;2.30;;;;;;;;;;5064967;28;20025;-75
2022/02/03 14:51:48;;;;;;;4.20;2.03;;;;;;;;;;5066341;28;20059;-75
2022/02/03 14:59:37;;;;;;;3.10;1.77;;;;;;;;;;5064169;28;20081;-73
2022/02/03 15:02:07;;;;;;;6.05;2.05;;;;;;;;;;5064474;28;20028;-74
2022/02/03 15:04:40;;;;;;;3.20;2.00;;;;;;;;;;5048542;28;20555;-73
2022/02/03 15:07:09;;;;;;;8.05;1.70;;;;;;;;;;5044108;28;20025;-75
2022/02/03 15:12:41;;;;;;;4.28;2.15;;;;;;;;;;5063300;28;20081;-74
2022/02/03 15:15:09;;;;;;;7.65;2.40;;;;;;;;;;5064554;28;20028;-74
2022/02/03 15:17:36;;;;;;;5.00;2.28;;;;;;;;;;5065684;28;20640;-75
2022/02/03 15:20:05;;;;;;;5.50;3.25;;;;;;;;;;5048207;28;20502;-75
2022/02/03 15:22:32;;;;;;;7.45;3.83;;;;;;;;;;5059341;28;20164;-74
2022/02/03 15:25:00;;;;;;;12.77;5.22;;;;;;;;;;5049981;28;20078;-75
2022/02/03 15:27:26;;;;;;;16.17;6.05;;;;;;;;;;5057673;28;20487;-74
2022/02/03 15:29:53;;;;;;;7.45;3.53;;;;;;;;;;5061851;28;20232;-76
2022/02/03 15:32:19;;;;;;;3.90;2.25;;;;;;;;;;5062298;28;20080;-74
2022/02/03 15:34:48;;;;;;;4.35;2.35;;;;;;;;;;5061727;28;20493;-74
2022/02/03 15:37:16;;;;;;;5.05;2.28;;;;;;;;;;5061450;28;20108;-73
2022/02/03 15:39:50;;;;;;;5.63;2.78;;;;;;;;;;5064131;28;20031;-74
2022/02/03 15:42:19;;;;;;;5.70;2.10;;;;;;;;;;5061208;28;20017;-76
2022/02/03 15:44:49;;;;;;;6.00;2.70;;;;;;;;;;5063320;28;20798;-75
2022/02/03 15:47:25;;;;;;;5.15;2.30;;;;;;;;;;5064360;28;20449;-76
2022/02/03 16:00:53;;;;;;;9.40;3.20;;;;;;;;;;5055508;28;20684;-74
2022/02/03 16:03:18;;;;;;;9.60;3.03;;;;;;;;;;5061464;28;20032;-74
2022/02/03 16:16:56;;;;;;;7.22;2.90;;;;;;;;;;5057452;28;20040;-73
2022/02/03 16:19:27;;;;;;;14.48;3.38;;;;;;;;;;5074603;28;20482;-73
2022/02/03 16:22:08;;;;;;;14.57;3.28;;;;;;;;;;5074286;28;20063;-73
2022/02/03 16:24:48;;;;;;;13.25;3.10;;;;;;;;;;5072709;28;20530;-73
2022/02/03 18:27:20;;;;;;;10.68;7.47;;;;;;;;;;5109579;28;20516;-69
2022/02/03 18:31:25;;;;;;;11.05;6.75;;;;;;;;;;5109814;28;20032;-70
2022/02/03 18:34:25;;;;;;;12.30;6.88;;;;;;;;;;5109495;28;20027;-70
2022/02/03 18:37:14;;;;;;;8.00;5.57;;;;;;;;;;5109317;28;20036;-69
2022/02/03 18:50:34;;;;;;;7.82;5.35;;;;;;;;;;5089323;28;20032;-69
2022/02/03 18:58:07;;;;;;;10.57;5.40;;;;;;;;;;5109140;28;20034;-70
2022/02/03 19:14:39;;;;;;;8.68;5.40;;;;;;;;;;5104102;28;20034;-70
2022/02/03 19:28:14;;;;;;;6.65;4.82;;;;;;;;;;5074580;28;20040;-71
2022/02/03 20:03:43;;;;;;;8.05;5.03;;;;;;;;;;5073784;28;20430;-68
2022/02/03 20:08:49;;;;;;;7.07;4.72;;;;;;;;;;5073794;28;20032;-68
2022/02/03 20:11:18;;;;;;;7.03;4.68;;;;;;;;;;5074176;28;20479;-68
2022/02/03 20:13:46;;;;;;;8.27;4.95;;;;;;;;;;5074020;28;20146;-68
2022/02/03 20:16:15;;;;;;;8.43;5.32;;;;;;;;;;5073898;28;20095;-68
2022/02/03 20:18:42;;;;;;;8.50;5.22;;;;;;;;;;5075418;28;20072;-68
2022/02/03 20:21:08;;;;;;;7.50;5.25;;;;;;;;;;5094342;28;20020;-68
2022/02/03 20:23:39;;;;;;;6.45;4.90;;;;;;;;;;5093721;28;20028;-68
2022/02/03 20:26:06;;;;;;;7.82;5.20;;;;;;;;;;5092822;28;20016;-68
2022/02/03 20:28:32;;;;;;;7.78;5.05;;;;;;;;;;5093790;28;20024;-69
2022/02/03 20:30:58;;;;;;;6.50;4.97;;;;;;;;;;5094093;28;20436;-69
2022/02/03 20:33:24;;;;;;;7.65;5.22;;;;;;;;;;5092315;28;20024;-69
2022/02/03 20:35:50;;;;;;;6.53;4.70;;;;;;;;;;5093730;28;20528;-69
2022/02/03 20:38:16;;;;;;;8.75;4.68;;;;;;;;;;5093651;28;20035;-68
2022/02/03 20:40:43;;;;;;;9.45;5.80;;;;;;;;;;5093852;28;20030;-68
2022/02/03 20:43:09;;;;;;;9.05;5.40;;;;;;;;;;5074676;28;20503;-69
2022/02/03 20:45:36;;;;;;;7.88;5.22;;;;;;;;;;5073403;28;20107;-69
2022/02/03 20:48:02;;;;;;;7.55;5.30;;;;;;;;;;5073040;28;20029;-69
2022/02/03 20:50:29;;;;;;;10.40;5.43;;;;;;;;;;5073182;28;20058;-68
2022/02/03 20:52:55;;;;;;;8.40;5.43;;;;;;;;;;5078444;28;20016;-69
2022/02/03 20:55:21;;;;;;;9.68;5.88;;;;;;;;;;5093397;28;20093;-69
2022/02/03 20:57:47;;;;;;;7.95;5.80;;;;;;;;;;5093255;28;20031;-69
2022/02/03 21:05:16;;;;;;;8.77;5.68;;;;;;;;;;5093255;28;20032;-69
2022/02/03 21:07:43;;;;;;;9.18;5.72;;;;;;;;;;5093382;28;20529;-69
2022/02/03 21:10:12;;;;;;;9.45;5.32;;;;;;;;;;5093448;28;20480;-69
2022/02/03 21:12:39;;;;;;;9.13;5.50;;;;;;;;;;5092984;28;20020;-69
2022/02/03 21:15:06;;;;;;;8.45;5.35;;;;;;;;;;5093032;28;20055;-69
2022/02/03 21:17:33;;;;;;;9.05;6.00;;;;;;;;;;5093309;28;20028;-69
2022/02/03 21:20:13;;;;;;;7.15;5.05;;;;;;;;;;5080001;28;20037;-69
2022/02/03 21:22:39;;;;;;;7.00;5.25;;;;;;;;;;5072566;28;20078;-69
2022/02/03 21:25:17;;;;;;;7.47;5.15;;;;;;;;;;5072702;28;20090;-69
2022/02/03 21:27:44;;;;;;;7.15;5.30;;;;;;;;;;5072442;28;20506;-69
2022/02/03 21:30:11;;;;;;;9.00;6.07;;;;;;;;;;5072545;28;20044;-69
2022/02/03 21:32:38;;;;;;;7.85;5.45;;;;;;;;;;5072758;28;20032;-69
2022/02/03 21:35:05;;;;;;;8.63;5.88;;;;;;;;;;5072456;28;20044;-69
2022/02/03 21:37:31;;;;;;;9.00;6.13;;;;;;;;;;5071039;28;20056;-69
2022/02/03 21:39:57;;;;;;;7.22;5.93;;;;;;;;;;5072292;28;20063;-69
2022/02/03 21:42:24;;;;;;;8.45;5.63;;;;;;;;;;5084395;28;20028;-69
2022/02/03 21:44:50;;;;;;;8.07;5.95;;;;;;;;;;5092454;28;20024;-70
2022/02/03 21:47:17;;;;;;;10.15;6.20;;;;;;;;;;5092593;28;20397;-69
2022/02/03 21:49:43;;;;;;;8.65;5.80;;;;;;;;;;5092540;28;20020;-70
2022/02/03 21:52:17;;;;;;;9.20;5.85;;;;;;;;;;5092586;28;20024;-69
2022/02/03 21:54:43;;;;;;;8.68;5.93;;;;;;;;;;5072162;28;20433;-69
2022/02/03 21:57:10;;;;;;;9.07;6.28;;;;;;;;;;5072405;28;20028;-69
2022/02/03 21:59:37;;;;;;;12.10;6.53;;;;;;;;;;5072357;28;20040;-69
2022/02/03 22:02:06;;;;;;;8.23;6.63;;;;;;;;;;5074157;28;20141;-69
2022/02/03 22:04:32;;;;;;;9.93;6.35;;;;;;;;;;5092279;28;20077;-69
2022/02/03 22:06:58;;;;;;;9.13;6.72;;;;;;;;;;5092628;28;20024;-69
2022/02/03 22:09:25;;;;;;;10.20;6.25;;;;;;;;;;5092206;28;20020;-69
2022/02/03 22:11:51;;;;;;;10.15;7.38;;;;;;;;;;5092349;28;20024;-69
2022/02/03 22:14:17;;;;;;;10.32;7.60;;;;;;;;;;5091908;28;20032;-69
2022/02/03 22:16:43;;;;;;;9.60;6.80;;;;;;;;;;5092411;28;20433;-69
2022/02/03 22:19:09;;;;;;;11.20;7.63;;;;;;;;;;5097771;28;20497;-69
2022/02/03 22:24:34;;;;;;;9.48;7.00;;;;;;;;;;5073730;28;20074;-69
2022/02/03 22:48:34;;;;;;;9.48;6.50;;;;;;;;;;5112187;28;20092;-69
2022/02/03 22:51:00;;;;;;;7.95;6.72;;;;;;;;;;5114800;28;20027;-70
2022/02/03 22:53:33;;;;;;;8.85;6.20;;;;;;;;;;5116253;28;20027;-69
2022/02/03 22:56:00;;;;;;;9.85;6.72;;;;;;;;;;5115781;28;20034;-69
2022/02/03 23:01:11;;;;;;;9.23;6.30;;;;;;;;;;5115904;28;20028;-69
2022/02/03 23:03:40;;;;;;;9.57;6.55;;;;;;;;;;5115560;28;20039;-69
2022/02/03 23:06:06;;;;;;;8.93;6.10;;;;;;;;;;5115523;28;20040;-69
2022/02/03 23:08:40;;;;;;;7.85;5.53;;;;;;;;;;5115781;28;20563;-69
2022/02/03 23:11:27;;;;;;;7.38;5.85;;;;;;;;;;5097251;28;20028;-69
2022/02/03 23:14:20;;;;;;;11.07;5.97;;;;;;;;;;5115587;28;20080;-69
2022/02/03 23:22:11;;;;;;;7.28;5.63;;;;;;;;;;5115440;28;20033;-69
2022/02/03 23:24:38;;;;;;;7.95;5.00;;;;;;;;;;5115213;28;20028;-69
2022/02/03 23:29:51;;;;;;;6.93;5.07;;;;;;;;;;5115300;28;20043;-69
2022/02/03 23:32:17;;;;;;;7.00;5.22;;;;;;;;;;5115375;28;20020;-69
2022/02/03 23:34:49;;;;;;;7.03;5.40;;;;;;;;;;5115136;28;20045;-69
2022/02/03 23:37:15;;;;;;;7.80;5.60;;;;;;;;;;5115421;28;20027;-69
2022/02/03 23:46:15;;;;;;;5.22;4.28;;;;;;;;;;5052225;28;20025;-69
